PTK2309 UHHH-UHBB
Flight info
| Callsign | PTK2309 |
|---|---|
| Flight time | 1h 25m |
| Altitude | 22000 |
| Route | RANOL2U RANOL B150 AMERA AMERA2H |
| Aircraft | YK40/M-SDFIRWY/H |
Departure
| Time | 2026-05-08 07:44 |
|---|---|
| Airport | Khabarovsk Novy Airport (UHHH) |
Arrival
| Time | 2026-05-08 09:09 |
|---|---|
| Airport | Ignatyevo Airport (UHBB) |
| Time | Latitude | Longitude | Altitude | Speed | Heading |
|---|---|---|---|---|---|
| 2026-05-08 07:22 | 48.53042 | 135.17833 | 266 ft | 0 kts | 133° |
| 2026-05-08 07:38 | 48.53042 | 135.17835 | 266 ft | 0 kts | 133° |
| 2026-05-08 07:38 | 48.53039 | 135.17839 | 266 ft | 4 kts | 133° |
| 2026-05-08 07:39 | 48.52974 | 135.17847 | 262 ft | 13 kts | 187° |
| 2026-05-08 07:39 | 48.52909 | 135.17931 | 260 ft | 9 kts | 138° |
| 2026-05-08 07:39 | 48.52860 | 135.17992 | 259 ft | 8 kts | 148° |
| 2026-05-08 07:39 | 48.52797 | 135.18031 | 256 ft | 10 kts | 148° |
| 2026-05-08 07:40 | 48.52734 | 135.18131 | 252 ft | 15 kts | 132° |
| 2026-05-08 07:40 | 48.52657 | 135.18259 | 246 ft | 17 kts | 131° |
| 2026-05-08 07:40 | 48.52564 | 135.18233 | 245 ft | 13 kts | 222° |
| 2026-05-08 07:40 | 48.52496 | 135.18140 | 246 ft | 14 kts | 221° |
| 2026-05-08 07:41 | 48.52413 | 135.18027 | 247 ft | 17 kts | 222° |
| 2026-05-08 07:41 | 48.52331 | 135.17915 | 249 ft | 14 kts | 222° |
| 2026-05-08 07:41 | 48.52262 | 135.17854 | 249 ft | 10 kts | 172° |
| 2026-05-08 07:41 | 48.52214 | 135.17912 | 247 ft | 9 kts | 132° |
| 2026-05-08 07:42 | 48.52166 | 135.17993 | 244 ft | 12 kts | 131° |
| 2026-05-08 07:42 | 48.52103 | 135.18097 | 241 ft | 14 kts | 127° |
| 2026-05-08 07:42 | 48.52108 | 135.18156 | 240 ft | 0 kts | 39° |
| 2026-05-08 07:42 | 48.52111 | 135.18159 | 240 ft | 4 kts | 39° |
| 2026-05-08 07:43 | 48.52249 | 135.18343 | 237 ft | 53 kts | 41° |
| 2026-05-08 07:43 | 48.52659 | 135.18903 | 237 ft | 102 kts | 41° |
| 2026-05-08 07:43 | 48.53215 | 135.19685 | 426 ft | 113 kts | 42° |
| 2026-05-08 07:43 | 48.53831 | 135.20589 | 573 ft | 136 kts | 41° |
| 2026-05-08 07:44 | 48.54623 | 135.21320 | 975 ft | 134 kts | 15° |
| 2026-05-08 07:44 | 48.55556 | 135.21161 | 1260 ft | 146 kts | 342° |
| 2026-05-08 07:44 | 48.56388 | 135.20091 | 1417 ft | 173 kts | 307° |
| 2026-05-08 07:44 | 48.56747 | 135.18274 | 1723 ft | 187 kts | 281° |
| 2026-05-08 07:45 | 48.56881 | 135.16429 | 2467 ft | 170 kts | 281° |
| 2026-05-08 07:45 | 48.57018 | 135.14739 | 3067 ft | 160 kts | 280° |
| 2026-05-08 07:45 | 48.57136 | 135.13110 | 3563 ft | 153 kts | 280° |
| 2026-05-08 07:45 | 48.57256 | 135.11533 | 3925 ft | 155 kts | 280° |
| 2026-05-08 07:46 | 48.57393 | 135.09895 | 4240 ft | 160 kts | 281° |
| 2026-05-08 07:46 | 48.57555 | 135.08191 | 4572 ft | 166 kts | 281° |
| 2026-05-08 07:46 | 48.57693 | 135.06474 | 4918 ft | 168 kts | 281° |
| 2026-05-08 07:46 | 48.57848 | 135.04701 | 5294 ft | 170 kts | 281° |
| 2026-05-08 07:47 | 48.58006 | 135.02940 | 5674 ft | 171 kts | 281° |
| 2026-05-08 07:47 | 48.58166 | 135.01163 | 6057 ft | 172 kts | 281° |
| 2026-05-08 07:47 | 48.58331 | 134.99371 | 6449 ft | 172 kts | 281° |
| 2026-05-08 07:47 | 48.58498 | 134.97589 | 6832 ft | 173 kts | 281° |
| 2026-05-08 07:48 | 48.58644 | 134.95804 | 7212 ft | 173 kts | 280° |
| 2026-05-08 07:48 | 48.58800 | 134.94000 | 7603 ft | 173 kts | 281° |
| 2026-05-08 07:48 | 48.58957 | 134.92210 | 7985 ft | 173 kts | 281° |
| 2026-05-08 07:48 | 48.59115 | 134.90413 | 8365 ft | 173 kts | 281° |
| 2026-05-08 07:49 | 48.59268 | 134.88615 | 8740 ft | 174 kts | 281° |
| 2026-05-08 07:49 | 48.59419 | 134.86809 | 9111 ft | 174 kts | 281° |
| 2026-05-08 07:49 | 48.59563 | 134.85008 | 9467 ft | 175 kts | 281° |
| 2026-05-08 07:49 | 48.59707 | 134.83166 | 9824 ft | 176 kts | 281° |
| 2026-05-08 07:50 | 48.59846 | 134.81331 | 10184 ft | 177 kts | 281° |
| 2026-05-08 07:50 | 48.59983 | 134.79491 | 10546 ft | 177 kts | 281° |
| 2026-05-08 07:50 | 48.60118 | 134.77661 | 10875 ft | 178 kts | 281° |
| 2026-05-08 07:50 | 48.60255 | 134.75787 | 11213 ft | 179 kts | 281° |
| 2026-05-08 07:51 | 48.60392 | 134.73923 | 11554 ft | 180 kts | 281° |
| 2026-05-08 07:51 | 48.60531 | 134.72054 | 11895 ft | 180 kts | 280° |
| 2026-05-08 07:51 | 48.60671 | 134.70177 | 12231 ft | 180 kts | 280° |
| 2026-05-08 07:51 | 48.60808 | 134.68315 | 12556 ft | 181 kts | 281° |
| 2026-05-08 07:52 | 48.60945 | 134.66409 | 12865 ft | 182 kts | 281° |
| 2026-05-08 07:52 | 48.61079 | 134.64517 | 13176 ft | 183 kts | 280° |
| 2026-05-08 07:52 | 48.61216 | 134.62608 | 13492 ft | 184 kts | 280° |
| 2026-05-08 07:52 | 48.61352 | 134.60702 | 13811 ft | 184 kts | 280° |
| 2026-05-08 07:53 | 48.61488 | 134.58780 | 14130 ft | 184 kts | 280° |
| 2026-05-08 07:53 | 48.61625 | 134.56867 | 14439 ft | 184 kts | 281° |
| 2026-05-08 07:53 | 48.61763 | 134.54956 | 14741 ft | 184 kts | 281° |
| 2026-05-08 07:53 | 48.61903 | 134.53021 | 15043 ft | 184 kts | 281° |
| 2026-05-08 07:54 | 48.62041 | 134.51109 | 15341 ft | 185 kts | 281° |
| 2026-05-08 07:54 | 48.62179 | 134.49193 | 15633 ft | 185 kts | 280° |
| 2026-05-08 07:54 | 48.62315 | 134.47255 | 15881 ft | 188 kts | 281° |
| 2026-05-08 07:54 | 48.62455 | 134.45281 | 16083 ft | 193 kts | 281° |
| 2026-05-08 07:55 | 48.62599 | 134.43242 | 16315 ft | 196 kts | 280° |
| 2026-05-08 07:55 | 48.62743 | 134.41176 | 16566 ft | 198 kts | 280° |
| 2026-05-08 07:55 | 48.62887 | 134.39125 | 16824 ft | 199 kts | 280° |
| 2026-05-08 07:55 | 48.63034 | 134.37045 | 17092 ft | 200 kts | 280° |
| 2026-05-08 07:56 | 48.63182 | 134.34959 | 17362 ft | 201 kts | 279° |
| 2026-05-08 07:56 | 48.63331 | 134.32835 | 17629 ft | 202 kts | 279° |
| 2026-05-08 07:56 | 48.63477 | 134.30745 | 17891 ft | 202 kts | 279° |
| 2026-05-08 07:56 | 48.63619 | 134.28696 | 18143 ft | 203 kts | 279° |
| 2026-05-08 07:57 | 48.63764 | 134.26570 | 18393 ft | 204 kts | 279° |
| 2026-05-08 07:57 | 48.63909 | 134.24457 | 18645 ft | 204 kts | 279° |
| 2026-05-08 07:57 | 48.64056 | 134.22299 | 18900 ft | 205 kts | 279° |
| 2026-05-08 07:57 | 48.64200 | 134.20163 | 19153 ft | 205 kts | 280° |
| 2026-05-08 07:58 | 48.64344 | 134.18031 | 19404 ft | 205 kts | 279° |
| 2026-05-08 07:58 | 48.64485 | 134.15904 | 19648 ft | 206 kts | 279° |
| 2026-05-08 07:58 | 48.64629 | 134.13722 | 19835 ft | 209 kts | 280° |
| 2026-05-08 07:58 | 48.64772 | 134.11531 | 20038 ft | 211 kts | 279° |
| 2026-05-08 07:59 | 48.64918 | 134.09311 | 20248 ft | 213 kts | 280° |
| 2026-05-08 07:59 | 48.65237 | 134.07163 | 20477 ft | 210 kts | 289° |
| 2026-05-08 07:59 | 48.65625 | 134.05037 | 20686 ft | 212 kts | 289° |
| 2026-05-08 07:59 | 48.65993 | 134.02864 | 20895 ft | 213 kts | 289° |
| 2026-05-08 08:00 | 48.66362 | 134.00700 | 21093 ft | 215 kts | 289° |
| 2026-05-08 08:00 | 48.66735 | 133.98517 | 21287 ft | 217 kts | 289° |
| 2026-05-08 08:00 | 48.67121 | 133.96300 | 21487 ft | 218 kts | 289° |
| 2026-05-08 08:00 | 48.67504 | 133.94096 | 21700 ft | 218 kts | 289° |
| 2026-05-08 08:01 | 48.67888 | 133.91872 | 21900 ft | 220 kts | 289° |
| 2026-05-08 08:01 | 48.68265 | 133.89580 | 21895 ft | 230 kts | 289° |
| 2026-05-08 08:01 | 48.68668 | 133.87210 | 21868 ft | 239 kts | 289° |
| 2026-05-08 08:01 | 48.69093 | 133.84760 | 21847 ft | 246 kts | 289° |
| 2026-05-08 08:02 | 48.69507 | 133.82184 | 21834 ft | 253 kts | 288° |
| 2026-05-08 08:02 | 48.69929 | 133.79588 | 21828 ft | 258 kts | 288° |
| 2026-05-08 08:02 | 48.70372 | 133.76930 | 21821 ft | 263 kts | 288° |
| 2026-05-08 08:02 | 48.70823 | 133.74237 | 21820 ft | 267 kts | 288° |
| 2026-05-08 08:03 | 48.71282 | 133.71510 | 21814 ft | 270 kts | 288° |
| 2026-05-08 08:03 | 48.71749 | 133.68739 | 21807 ft | 273 kts | 289° |
| 2026-05-08 08:03 | 48.72218 | 133.65956 | 21802 ft | 276 kts | 288° |
| 2026-05-08 08:03 | 48.72643 | 133.63118 | 21797 ft | 279 kts | 287° |
| 2026-05-08 08:04 | 48.73067 | 133.60255 | 21796 ft | 280 kts | 287° |
| 2026-05-08 08:04 | 48.73498 | 133.57384 | 21790 ft | 282 kts | 287° |
| 2026-05-08 08:04 | 48.73937 | 133.54452 | 21777 ft | 284 kts | 287° |
| 2026-05-08 08:04 | 48.74366 | 133.51569 | 21785 ft | 285 kts | 287° |
| 2026-05-08 08:05 | 48.74800 | 133.48639 | 21793 ft | 285 kts | 287° |
| 2026-05-08 08:05 | 48.75235 | 133.45717 | 21783 ft | 287 kts | 287° |
| 2026-05-08 08:05 | 48.75673 | 133.42752 | 21781 ft | 287 kts | 287° |
| 2026-05-08 08:05 | 48.76106 | 133.39801 | 21779 ft | 288 kts | 287° |
| 2026-05-08 08:06 | 48.76535 | 133.36852 | 21776 ft | 288 kts | 287° |
| 2026-05-08 08:06 | 48.76961 | 133.33893 | 21767 ft | 289 kts | 287° |
| 2026-05-08 08:06 | 48.77383 | 133.30936 | 21771 ft | 290 kts | 287° |
| 2026-05-08 08:06 | 48.77795 | 133.28064 | 21769 ft | 290 kts | 287° |
| 2026-05-08 08:07 | 48.78221 | 133.25096 | 21767 ft | 290 kts | 287° |
| 2026-05-08 08:07 | 48.78648 | 133.22118 | 21761 ft | 290 kts | 287° |
| 2026-05-08 08:07 | 48.79098 | 133.19135 | 21757 ft | 290 kts | 287° |
| 2026-05-08 08:07 | 48.79549 | 133.16138 | 21758 ft | 290 kts | 287° |
| 2026-05-08 08:08 | 48.79985 | 133.13179 | 21756 ft | 291 kts | 287° |
| 2026-05-08 08:08 | 48.80424 | 133.10161 | 21756 ft | 291 kts | 287° |
| 2026-05-08 08:08 | 48.80855 | 133.07176 | 21752 ft | 291 kts | 287° |
| 2026-05-08 08:08 | 48.81280 | 133.04201 | 21751 ft | 291 kts | 287° |
| 2026-05-08 08:09 | 48.81708 | 133.01186 | 21753 ft | 291 kts | 287° |
| 2026-05-08 08:09 | 48.82130 | 132.98201 | 21746 ft | 292 kts | 287° |
| 2026-05-08 08:09 | 48.82550 | 132.95207 | 21738 ft | 292 kts | 287° |
| 2026-05-08 08:09 | 48.82975 | 132.92180 | 21733 ft | 292 kts | 287° |
| 2026-05-08 08:10 | 48.83392 | 132.89188 | 21734 ft | 292 kts | 287° |
| 2026-05-08 08:10 | 48.83816 | 132.86153 | 21736 ft | 292 kts | 287° |
| 2026-05-08 08:10 | 48.84237 | 132.83147 | 21734 ft | 292 kts | 287° |
| 2026-05-08 08:10 | 48.84812 | 132.80235 | 21757 ft | 285 kts | 301° |
| 2026-05-08 08:11 | 48.85702 | 132.77620 | 21734 ft | 283 kts | 305° |
| 2026-05-08 08:11 | 48.86691 | 132.74999 | 21699 ft | 284 kts | 304° |
| 2026-05-08 08:11 | 48.87642 | 132.72420 | 21715 ft | 283 kts | 304° |
| 2026-05-08 08:11 | 48.88606 | 132.69781 | 21723 ft | 283 kts | 304° |
| 2026-05-08 08:12 | 48.89544 | 132.67204 | 21728 ft | 283 kts | 304° |
| 2026-05-08 08:12 | 48.90497 | 132.64584 | 21722 ft | 284 kts | 304° |
| 2026-05-08 08:12 | 48.91457 | 132.61938 | 21726 ft | 284 kts | 304° |
| 2026-05-08 08:12 | 48.92395 | 132.59357 | 21723 ft | 284 kts | 304° |
| 2026-05-08 08:13 | 48.93345 | 132.56731 | 21720 ft | 284 kts | 304° |
| 2026-05-08 08:13 | 48.94297 | 132.54092 | 21718 ft | 284 kts | 304° |
| 2026-05-08 08:13 | 48.95246 | 132.51457 | 21718 ft | 284 kts | 304° |
| 2026-05-08 08:13 | 48.96191 | 132.48827 | 21716 ft | 284 kts | 305° |
| 2026-05-08 08:14 | 48.97134 | 132.46187 | 21713 ft | 284 kts | 304° |
| 2026-05-08 08:14 | 48.98067 | 132.43565 | 21717 ft | 284 kts | 304° |
| 2026-05-08 08:14 | 48.99017 | 132.40894 | 21717 ft | 284 kts | 304° |
| 2026-05-08 08:14 | 48.99947 | 132.38275 | 21716 ft | 284 kts | 304° |
| 2026-05-08 08:15 | 49.00881 | 132.35643 | 21716 ft | 284 kts | 305° |
| 2026-05-08 08:15 | 49.01821 | 132.32964 | 21730 ft | 284 kts | 301° |
| 2026-05-08 08:15 | 49.02678 | 132.30270 | 21713 ft | 285 kts | 302° |
| 2026-05-08 08:15 | 49.03507 | 132.27696 | 21725 ft | 284 kts | 302° |
| 2026-05-08 08:16 | 49.04378 | 132.25003 | 21736 ft | 284 kts | 302° |
| 2026-05-08 08:16 | 49.05260 | 132.22284 | 21733 ft | 284 kts | 302° |
| 2026-05-08 08:16 | 49.06126 | 132.19604 | 21743 ft | 284 kts | 302° |
| 2026-05-08 08:16 | 49.06995 | 132.16910 | 21744 ft | 284 kts | 302° |
| 2026-05-08 08:17 | 49.07865 | 132.14200 | 21744 ft | 284 kts | 302° |
| 2026-05-08 08:17 | 49.08731 | 132.11496 | 21748 ft | 284 kts | 302° |
| 2026-05-08 08:17 | 49.09584 | 132.08794 | 21747 ft | 285 kts | 302° |
| 2026-05-08 08:17 | 49.10446 | 132.06068 | 21752 ft | 284 kts | 302° |
| 2026-05-08 08:18 | 49.11311 | 132.03360 | 21748 ft | 285 kts | 302° |
| 2026-05-08 08:18 | 49.12119 | 132.00839 | 21745 ft | 285 kts | 302° |
| 2026-05-08 08:18 | 49.12988 | 131.98135 | 21740 ft | 286 kts | 302° |
| 2026-05-08 08:18 | 49.13820 | 131.95554 | 21733 ft | 286 kts | 302° |
| 2026-05-08 08:19 | 49.14690 | 131.92841 | 21730 ft | 286 kts | 301° |
| 2026-05-08 08:19 | 49.15503 | 131.90088 | 21718 ft | 287 kts | 301° |
| 2026-05-08 08:19 | 49.16332 | 131.87285 | 21724 ft | 287 kts | 301° |
| 2026-05-08 08:19 | 49.17157 | 131.84515 | 21725 ft | 287 kts | 301° |
| 2026-05-08 08:20 | 49.17983 | 131.81751 | 21729 ft | 287 kts | 301° |
| 2026-05-08 08:20 | 49.18813 | 131.78979 | 21726 ft | 287 kts | 301° |
| 2026-05-08 08:20 | 49.19638 | 131.76221 | 21722 ft | 287 kts | 301° |
| 2026-05-08 08:20 | 49.20467 | 131.73444 | 21726 ft | 287 kts | 301° |
| 2026-05-08 08:21 | 49.21298 | 131.70666 | 21725 ft | 287 kts | 301° |
| 2026-05-08 08:21 | 49.22123 | 131.67911 | 21726 ft | 287 kts | 301° |
| 2026-05-08 08:21 | 49.22954 | 131.65138 | 21727 ft | 287 kts | 301° |
| 2026-05-08 08:21 | 49.23788 | 131.62363 | 21729 ft | 287 kts | 301° |
| 2026-05-08 08:22 | 49.24625 | 131.59575 | 21724 ft | 288 kts | 301° |
| 2026-05-08 08:22 | 49.25456 | 131.56810 | 21728 ft | 287 kts | 301° |
| 2026-05-08 08:22 | 49.26284 | 131.54051 | 21730 ft | 287 kts | 301° |
| 2026-05-08 08:22 | 49.27121 | 131.51270 | 21729 ft | 287 kts | 301° |
| 2026-05-08 08:23 | 49.27952 | 131.48505 | 21727 ft | 287 kts | 301° |
| 2026-05-08 08:23 | 49.28783 | 131.45743 | 21726 ft | 287 kts | 301° |
| 2026-05-08 08:23 | 49.29616 | 131.42975 | 21724 ft | 287 kts | 301° |
| 2026-05-08 08:23 | 49.30450 | 131.40204 | 21724 ft | 287 kts | 301° |
| 2026-05-08 08:24 | 49.31292 | 131.37416 | 21724 ft | 287 kts | 301° |
| 2026-05-08 08:24 | 49.32119 | 131.34679 | 21723 ft | 287 kts | 300° |
| 2026-05-08 08:24 | 49.32956 | 131.31909 | 21722 ft | 287 kts | 301° |
| 2026-05-08 08:24 | 49.33739 | 131.29318 | 21724 ft | 287 kts | 301° |
| 2026-05-08 08:25 | 49.34582 | 131.26531 | 21724 ft | 287 kts | 301° |
| 2026-05-08 08:25 | 49.35412 | 131.23784 | 21723 ft | 287 kts | 301° |
| 2026-05-08 08:25 | 49.36243 | 131.21027 | 21730 ft | 286 kts | 301° |
| 2026-05-08 08:25 | 49.37077 | 131.18265 | 21737 ft | 286 kts | 301° |
| 2026-05-08 08:26 | 49.37912 | 131.15498 | 21739 ft | 286 kts | 301° |
| 2026-05-08 08:26 | 49.38749 | 131.12733 | 21737 ft | 286 kts | 301° |
| 2026-05-08 08:26 | 49.39589 | 131.09958 | 21728 ft | 286 kts | 301° |
| 2026-05-08 08:26 | 49.40429 | 131.07179 | 21724 ft | 287 kts | 301° |
| 2026-05-08 08:27 | 49.41255 | 131.04436 | 21723 ft | 286 kts | 301° |
| 2026-05-08 08:27 | 49.42087 | 131.01675 | 21726 ft | 286 kts | 301° |
| 2026-05-08 08:27 | 49.42927 | 130.98892 | 21725 ft | 286 kts | 301° |
| 2026-05-08 08:27 | 49.43760 | 130.96130 | 21723 ft | 286 kts | 301° |
| 2026-05-08 08:28 | 49.44601 | 130.93347 | 21722 ft | 286 kts | 301° |
| 2026-05-08 08:28 | 49.45433 | 130.90595 | 21722 ft | 286 kts | 301° |
| 2026-05-08 08:28 | 49.46272 | 130.87830 | 21724 ft | 286 kts | 301° |
| 2026-05-08 08:28 | 49.47111 | 130.85069 | 21725 ft | 286 kts | 301° |
| 2026-05-08 08:29 | 49.47956 | 130.82288 | 21725 ft | 286 kts | 301° |
| 2026-05-08 08:29 | 49.48790 | 130.79541 | 21722 ft | 286 kts | 301° |
| 2026-05-08 08:29 | 49.49630 | 130.76765 | 21722 ft | 286 kts | 301° |
| 2026-05-08 08:29 | 49.50475 | 130.73976 | 21722 ft | 286 kts | 301° |
| 2026-05-08 08:30 | 49.51307 | 130.71227 | 21721 ft | 286 kts | 301° |
| 2026-05-08 08:30 | 49.52148 | 130.68440 | 21723 ft | 286 kts | 301° |
| 2026-05-08 08:30 | 49.53797 | 130.62917 | 21725 ft | 286 kts | 301° |
| 2026-05-08 08:31 | 49.54641 | 130.60113 | 21725 ft | 286 kts | 301° |
| 2026-05-08 08:31 | 49.55471 | 130.57365 | 21724 ft | 286 kts | 301° |
| 2026-05-08 08:31 | 49.56313 | 130.54581 | 21728 ft | 286 kts | 301° |
| 2026-05-08 08:31 | 49.57143 | 130.51834 | 21727 ft | 286 kts | 301° |
| 2026-05-08 08:32 | 49.57982 | 130.49025 | 21733 ft | 287 kts | 300° |
| 2026-05-08 08:32 | 49.58761 | 130.46228 | 21731 ft | 287 kts | 300° |
| 2026-05-08 08:32 | 49.59557 | 130.43410 | 21727 ft | 287 kts | 300° |
| 2026-05-08 08:32 | 49.60356 | 130.40602 | 21728 ft | 286 kts | 300° |
| 2026-05-08 08:33 | 49.61153 | 130.37820 | 21735 ft | 286 kts | 300° |
| 2026-05-08 08:33 | 49.61959 | 130.35007 | 21734 ft | 286 kts | 300° |
| 2026-05-08 08:33 | 49.62760 | 130.32214 | 21737 ft | 286 kts | 299° |
| 2026-05-08 08:33 | 49.63549 | 130.29459 | 21741 ft | 286 kts | 299° |
| 2026-05-08 08:34 | 49.64347 | 130.26669 | 21744 ft | 286 kts | 299° |
| 2026-05-08 08:34 | 49.65154 | 130.23851 | 21746 ft | 286 kts | 299° |
| 2026-05-08 08:34 | 49.65945 | 130.21089 | 21749 ft | 285 kts | 299° |
| 2026-05-08 08:34 | 49.66753 | 130.18274 | 21749 ft | 286 kts | 299° |
| 2026-05-08 08:35 | 49.67548 | 130.15501 | 21747 ft | 286 kts | 299° |
| 2026-05-08 08:35 | 49.68354 | 130.12685 | 21746 ft | 286 kts | 299° |
| 2026-05-08 08:35 | 49.69152 | 130.09894 | 21746 ft | 286 kts | 299° |
| 2026-05-08 08:35 | 49.69961 | 130.07069 | 21743 ft | 286 kts | 299° |
| 2026-05-08 08:36 | 49.70759 | 130.04288 | 21746 ft | 286 kts | 299° |
| 2026-05-08 08:36 | 49.71567 | 130.01476 | 21746 ft | 286 kts | 299° |
| 2026-05-08 08:36 | 49.72363 | 129.98700 | 21747 ft | 286 kts | 299° |
| 2026-05-08 08:36 | 49.73175 | 129.95874 | 21640 ft | 285 kts | 300° |
| 2026-05-08 08:37 | 49.73958 | 129.93138 | 21485 ft | 280 kts | 300° |
| 2026-05-08 08:37 | 49.74740 | 129.90393 | 21313 ft | 275 kts | 300° |
| 2026-05-08 08:37 | 49.75492 | 129.87743 | 21127 ft | 271 kts | 300° |
| 2026-05-08 08:37 | 49.76245 | 129.85084 | 20930 ft | 268 kts | 300° |
| 2026-05-08 08:38 | 49.76991 | 129.82443 | 20726 ft | 266 kts | 300° |
| 2026-05-08 08:38 | 49.77725 | 129.79840 | 20521 ft | 264 kts | 300° |
| 2026-05-08 08:38 | 49.78458 | 129.77249 | 20312 ft | 263 kts | 300° |
| 2026-05-08 08:38 | 49.79187 | 129.74674 | 20104 ft | 262 kts | 300° |
| 2026-05-08 08:39 | 49.79907 | 129.72133 | 19899 ft | 260 kts | 300° |
| 2026-05-08 08:39 | 49.80633 | 129.69574 | 19690 ft | 259 kts | 300° |
| 2026-05-08 08:39 | 49.81356 | 129.67029 | 19483 ft | 258 kts | 300° |
| 2026-05-08 08:39 | 49.82085 | 129.64475 | 19275 ft | 257 kts | 300° |
| 2026-05-08 08:40 | 49.82804 | 129.61963 | 19070 ft | 257 kts | 300° |
| 2026-05-08 08:40 | 49.83523 | 129.59460 | 18867 ft | 256 kts | 300° |
| 2026-05-08 08:40 | 49.84243 | 129.56957 | 18665 ft | 255 kts | 300° |
| 2026-05-08 08:40 | 49.84966 | 129.54439 | 18461 ft | 255 kts | 300° |
| 2026-05-08 08:41 | 49.85680 | 129.51953 | 18261 ft | 254 kts | 300° |
| 2026-05-08 08:41 | 49.86393 | 129.49472 | 18062 ft | 254 kts | 300° |
| 2026-05-08 08:41 | 49.87116 | 129.46956 | 17864 ft | 253 kts | 300° |
| 2026-05-08 08:41 | 49.87826 | 129.44488 | 17669 ft | 252 kts | 300° |
| 2026-05-08 08:42 | 49.88537 | 129.42035 | 17477 ft | 251 kts | 300° |
| 2026-05-08 08:42 | 49.89249 | 129.39578 | 17288 ft | 250 kts | 300° |
| 2026-05-08 08:42 | 49.89967 | 129.37106 | 17096 ft | 250 kts | 300° |
| 2026-05-08 08:42 | 49.90638 | 129.34654 | 16914 ft | 249 kts | 298° |
| 2026-05-08 08:43 | 49.91309 | 129.32173 | 16722 ft | 249 kts | 298° |
| 2026-05-08 08:43 | 49.91972 | 129.29748 | 16534 ft | 248 kts | 298° |
| 2026-05-08 08:43 | 49.92655 | 129.27255 | 16343 ft | 248 kts | 298° |
| 2026-05-08 08:43 | 49.93336 | 129.24770 | 16151 ft | 247 kts | 298° |
| 2026-05-08 08:44 | 49.94001 | 129.22348 | 15966 ft | 247 kts | 298° |
| 2026-05-08 08:44 | 49.94676 | 129.19894 | 15780 ft | 246 kts | 298° |
| 2026-05-08 08:44 | 49.95352 | 129.17445 | 15595 ft | 246 kts | 298° |
| 2026-05-08 08:44 | 49.96023 | 129.15019 | 15412 ft | 246 kts | 298° |
| 2026-05-08 08:45 | 49.96695 | 129.12599 | 15231 ft | 245 kts | 298° |
| 2026-05-08 08:45 | 49.97370 | 129.10173 | 15052 ft | 245 kts | 298° |
| 2026-05-08 08:45 | 49.97997 | 129.07745 | 14885 ft | 245 kts | 296° |
| 2026-05-08 08:45 | 49.98605 | 129.05280 | 14706 ft | 244 kts | 296° |
| 2026-05-08 08:46 | 49.99220 | 129.02812 | 14527 ft | 243 kts | 296° |
| 2026-05-08 08:46 | 49.99826 | 129.00382 | 14352 ft | 243 kts | 296° |
| 2026-05-08 08:46 | 50.00435 | 128.97945 | 14181 ft | 242 kts | 296° |
| 2026-05-08 08:46 | 50.01042 | 128.95515 | 14009 ft | 242 kts | 296° |
| 2026-05-08 08:47 | 50.01658 | 128.93098 | 13840 ft | 241 kts | 297° |
| 2026-05-08 08:47 | 50.02284 | 128.90689 | 13674 ft | 240 kts | 297° |
| 2026-05-08 08:47 | 50.02908 | 128.88278 | 13510 ft | 240 kts | 297° |
| 2026-05-08 08:47 | 50.03533 | 128.85861 | 13346 ft | 240 kts | 297° |
| 2026-05-08 08:48 | 50.04158 | 128.83467 | 13183 ft | 239 kts | 297° |
| 2026-05-08 08:48 | 50.04779 | 128.81111 | 13052 ft | 237 kts | 297° |
| 2026-05-08 08:48 | 50.05407 | 128.78738 | 12948 ft | 235 kts | 297° |
| 2026-05-08 08:48 | 50.06021 | 128.76419 | 12841 ft | 233 kts | 297° |
| 2026-05-08 08:49 | 50.06638 | 128.74086 | 12730 ft | 231 kts | 297° |
| 2026-05-08 08:49 | 50.07240 | 128.71805 | 12617 ft | 230 kts | 297° |
| 2026-05-08 08:49 | 50.07848 | 128.69502 | 12502 ft | 229 kts | 297° |
| 2026-05-08 08:49 | 50.08447 | 128.67233 | 12385 ft | 228 kts | 297° |
| 2026-05-08 08:50 | 50.09051 | 128.64955 | 12265 ft | 228 kts | 297° |
| 2026-05-08 08:50 | 50.09651 | 128.62692 | 12148 ft | 227 kts | 297° |
| 2026-05-08 08:50 | 50.10258 | 128.60414 | 12035 ft | 227 kts | 297° |
| 2026-05-08 08:50 | 50.10863 | 128.58159 | 11929 ft | 226 kts | 297° |
| 2026-05-08 08:51 | 50.11431 | 128.56058 | 11828 ft | 226 kts | 297° |
| 2026-05-08 08:51 | 50.12042 | 128.53810 | 11719 ft | 225 kts | 297° |
| 2026-05-08 08:51 | 50.12625 | 128.51672 | 11617 ft | 225 kts | 297° |
| 2026-05-08 08:51 | 50.13204 | 128.49405 | 11517 ft | 224 kts | 296° |
| 2026-05-08 08:52 | 50.13785 | 128.47150 | 11412 ft | 223 kts | 296° |
| 2026-05-08 08:52 | 50.14365 | 128.44920 | 11306 ft | 223 kts | 296° |
| 2026-05-08 08:52 | 50.14949 | 128.42680 | 11201 ft | 223 kts | 296° |
| 2026-05-08 08:52 | 50.15530 | 128.40459 | 11094 ft | 222 kts | 296° |
| 2026-05-08 08:53 | 50.16107 | 128.38243 | 10984 ft | 221 kts | 296° |
| 2026-05-08 08:53 | 50.16680 | 128.36034 | 10877 ft | 220 kts | 296° |
| 2026-05-08 08:53 | 50.17255 | 128.33829 | 10768 ft | 219 kts | 295° |
| 2026-05-08 08:53 | 50.17825 | 128.31644 | 10661 ft | 219 kts | 296° |
| 2026-05-08 08:54 | 50.18385 | 128.29509 | 10558 ft | 218 kts | 295° |
| 2026-05-08 08:54 | 50.18964 | 128.27318 | 10450 ft | 218 kts | 295° |
| 2026-05-08 08:54 | 50.19548 | 128.25119 | 10329 ft | 217 kts | 296° |
| 2026-05-08 08:54 | 50.20108 | 128.23007 | 10175 ft | 208 kts | 296° |
| 2026-05-08 08:55 | 50.20652 | 128.20944 | 9905 ft | 204 kts | 296° |
| 2026-05-08 08:55 | 50.21164 | 128.18926 | 9621 ft | 197 kts | 292° |
| 2026-05-08 08:55 | 50.21599 | 128.16933 | 9320 ft | 192 kts | 293° |
| 2026-05-08 08:55 | 50.22098 | 128.14983 | 9020 ft | 197 kts | 296° |
| 2026-05-08 08:56 | 50.22608 | 128.12979 | 8747 ft | 205 kts | 291° |
| 2026-05-08 08:56 | 50.23053 | 128.10860 | 8475 ft | 206 kts | 292° |
| 2026-05-08 08:56 | 50.23530 | 128.08786 | 8190 ft | 200 kts | 292° |
| 2026-05-08 08:56 | 50.24002 | 128.06773 | 7888 ft | 194 kts | 293° |
| 2026-05-08 08:57 | 50.24457 | 128.04807 | 7598 ft | 190 kts | 292° |
| 2026-05-08 08:57 | 50.24889 | 128.02905 | 7273 ft | 187 kts | 293° |
| 2026-05-08 08:57 | 50.25319 | 128.00995 | 6950 ft | 186 kts | 293° |
| 2026-05-08 08:57 | 50.25743 | 127.99097 | 6626 ft | 184 kts | 293° |
| 2026-05-08 08:58 | 50.26185 | 127.97227 | 6306 ft | 182 kts | 295° |
| 2026-05-08 08:58 | 50.26654 | 127.95408 | 5984 ft | 182 kts | 295° |
| 2026-05-08 08:58 | 50.27116 | 127.93574 | 5700 ft | 188 kts | 295° |
| 2026-05-08 08:58 | 50.27617 | 127.91588 | 5460 ft | 202 kts | 295° |
| 2026-05-08 08:59 | 50.28140 | 127.89531 | 5271 ft | 210 kts | 295° |
| 2026-05-08 08:59 | 50.28684 | 127.87391 | 5116 ft | 212 kts | 295° |
| 2026-05-08 08:59 | 50.29226 | 127.85262 | 4979 ft | 207 kts | 295° |
| 2026-05-08 08:59 | 50.29752 | 127.83190 | 4828 ft | 203 kts | 295° |
| 2026-05-08 09:00 | 50.30264 | 127.81175 | 4666 ft | 201 kts | 295° |
| 2026-05-08 09:00 | 50.30782 | 127.79134 | 4496 ft | 200 kts | 295° |
| 2026-05-08 09:00 | 50.31287 | 127.77130 | 4329 ft | 198 kts | 295° |
| 2026-05-08 09:00 | 50.31794 | 127.75118 | 4155 ft | 198 kts | 295° |
| 2026-05-08 09:01 | 50.32297 | 127.73109 | 3948 ft | 200 kts | 295° |
| 2026-05-08 09:01 | 50.32778 | 127.71075 | 3759 ft | 201 kts | 294° |
| 2026-05-08 09:01 | 50.33247 | 127.69011 | 3566 ft | 201 kts | 294° |
| 2026-05-08 09:01 | 50.33717 | 127.66991 | 3398 ft | 191 kts | 294° |
| 2026-05-08 09:02 | 50.34143 | 127.65117 | 3212 ft | 177 kts | 292° |
| 2026-05-08 09:02 | 50.34425 | 127.63255 | 3079 ft | 175 kts | 283° |
| 2026-05-08 09:02 | 50.34316 | 127.61341 | 3026 ft | 183 kts | 253° |
| 2026-05-08 09:02 | 50.33445 | 127.59882 | 2972 ft | 194 kts | 208° |
| 2026-05-08 09:03 | 50.32193 | 127.59045 | 2988 ft | 194 kts | 205° |
| 2026-05-08 09:03 | 50.30934 | 127.58270 | 2872 ft | 201 kts | 204° |
| 2026-05-08 09:03 | 50.29704 | 127.57333 | 2683 ft | 190 kts | 214° |
| 2026-05-08 09:03 | 50.28808 | 127.56015 | 2677 ft | 169 kts | 238° |
| 2026-05-08 09:04 | 50.28389 | 127.54388 | 2680 ft | 160 kts | 264° |
| 2026-05-08 09:04 | 50.28238 | 127.52661 | 2621 ft | 161 kts | 269° |
| 2026-05-08 09:04 | 50.28154 | 127.50933 | 2519 ft | 154 kts | 273° |
| 2026-05-08 09:04 | 50.28318 | 127.49355 | 2369 ft | 143 kts | 295° |
| 2026-05-08 09:05 | 50.28786 | 127.48116 | 2321 ft | 119 kts | 314° |
| 2026-05-08 09:05 | 50.29396 | 127.47341 | 2192 ft | 109 kts | 329° |
| 2026-05-08 09:05 | 50.30042 | 127.46689 | 2215 ft | 114 kts | 329° |
| 2026-05-08 09:05 | 50.30727 | 127.46025 | 2237 ft | 120 kts | 333° |
| 2026-05-08 09:06 | 50.31502 | 127.45499 | 2227 ft | 121 kts | 341° |
| 2026-05-08 09:06 | 50.32290 | 127.45049 | 2210 ft | 122 kts | 341° |
| 2026-05-08 09:06 | 50.33106 | 127.44644 | 2159 ft | 123 kts | 346° |
| 2026-05-08 09:06 | 50.33947 | 127.44366 | 2054 ft | 123 kts | 350° |
| 2026-05-08 09:07 | 50.34791 | 127.44101 | 1934 ft | 123 kts | 349° |
| 2026-05-08 09:07 | 50.35627 | 127.43842 | 1764 ft | 124 kts | 350° |
| 2026-05-08 09:07 | 50.36468 | 127.43562 | 1557 ft | 123 kts | 349° |
| 2026-05-08 09:07 | 50.37295 | 127.43283 | 1372 ft | 120 kts | 350° |
| 2026-05-08 09:08 | 50.38107 | 127.43032 | 1202 ft | 118 kts | 349° |
| 2026-05-08 09:08 | 50.38929 | 127.42780 | 994 ft | 122 kts | 351° |
| 2026-05-08 09:08 | 50.39749 | 127.42508 | 812 ft | 119 kts | 348° |
| 2026-05-08 09:08 | 50.40527 | 127.42250 | 666 ft | 111 kts | 348° |
| 2026-05-08 09:09 | 50.41277 | 127.42007 | 534 ft | 108 kts | 348° |
| 2026-05-08 09:09 | 50.41975 | 127.41781 | 501 ft | 91 kts | 349° |
| 2026-05-08 09:09 | 50.42512 | 127.41609 | 501 ft | 66 kts | 349° |
| 2026-05-08 09:09 | 50.42780 | 127.41524 | 501 ft | 23 kts | 347° |
| 2026-05-08 09:10 | 50.42865 | 127.41480 | 501 ft | 9 kts | 313° |
| 2026-05-08 09:10 | 50.42865 | 127.41401 | 501 ft | 5 kts | 227° |
| 2026-05-08 09:10 | 50.42848 | 127.41373 | 501 ft | 0 kts | 223° |